createdAt,value
2023-05-08T00:00:59.046Z,10.38
2023-05-08T00:03:26.542Z,10.77
2023-05-08T00:05:55.455Z,11.57
2023-05-08T00:10:49.074Z,10.55
2023-05-08T00:13:16.245Z,9.98
2023-05-08T00:15:42.984Z,10.02
2023-05-08T00:18:09.792Z,9.93
2023-05-08T00:20:36.623Z,10.02
2023-05-08T00:23:03.477Z,9.05
2023-05-08T00:25:31.368Z,11.27
2023-05-08T00:27:58.903Z,10.80
2023-05-08T00:30:25.614Z,10.48
2023-05-08T00:32:52.961Z,10.02
2023-05-08T00:35:20.391Z,11.02
2023-05-08T00:37:47.247Z,10.35
2023-05-08T00:40:14.320Z,10.45
2023-05-08T00:42:41.698Z,9.40
2023-05-08T00:45:09.118Z,9.48
2023-05-08T00:47:35.852Z,10.18
2023-05-08T00:50:03.290Z,8.93
2023-05-08T00:52:31.806Z,8.10
2023-05-08T00:57:25.994Z,9.10
2023-05-08T00:59:54.057Z,8.18
2023-05-08T01:02:21.115Z,8.88
2023-05-08T01:04:48.521Z,8.68
2023-05-08T01:07:17.989Z,9.23
2023-05-08T01:09:44.660Z,8.73
2023-05-08T01:12:14.042Z,8.23
2023-05-08T01:14:51.996Z,8.48
2023-05-08T01:17:36.429Z,8.13
2023-05-08T01:20:11.218Z,8.20
2023-05-08T01:23:17.939Z,8.05
2023-05-08T01:26:13.649Z,7.47
2023-05-08T01:29:01.279Z,7.13
2023-05-08T01:31:47.436Z,6.85
2023-05-08T01:34:35.387Z,7.28
2023-05-08T01:37:06.624Z,6.90
2023-05-08T01:39:48.209Z,7.57
2023-05-08T01:42:28.803Z,7.07
2023-05-08T01:45:03.332Z,7.07
2023-05-08T01:47:33.329Z,6.97
2023-05-08T01:50:33.438Z,7.10
2023-05-08T01:53:08.039Z,7.32
2023-05-08T01:55:37.379Z,6.85
2023-05-08T01:58:09.868Z,6.90
2023-05-08T02:00:40.652Z,7.60
2023-05-08T02:03:09.309Z,6.70
2023-05-08T02:08:04.150Z,8.40
2023-05-08T02:10:31.852Z,8.33
2023-05-08T02:13:01.378Z,7.33
2023-05-08T02:15:30.785Z,9.07
2023-05-08T02:17:58.776Z,8.45
2023-05-08T02:20:27.817Z,8.93
2023-05-08T02:22:55.269Z,9.55
2023-05-08T02:25:23.345Z,8.68
2023-05-08T02:27:51.781Z,8.80
2023-05-08T02:30:20.105Z,8.65
2023-05-08T02:32:48.384Z,7.97
2023-05-08T02:35:17.244Z,8.55
2023-05-08T02:37:55.530Z,8.68
2023-05-08T02:40:24.633Z,8.85
2023-05-08T02:42:51.435Z,8.68
2023-05-08T02:45:18.654Z,7.93
2023-05-08T02:48:01.812Z,8.30
2023-05-08T02:51:19.508Z,8.65
2023-05-08T02:53:51.933Z,8.80
2023-05-08T02:56:36.179Z,9.68
2023-05-08T02:59:18.910Z,9.38
2023-05-08T03:01:53.863Z,10.45
2023-05-08T03:04:30.735Z,9.45
2023-05-08T03:06:58.364Z,10.23
2023-05-08T03:09:32.105Z,10.07
2023-05-08T03:12:04.810Z,9.40
2023-05-08T03:14:34.684Z,9.48
2023-05-08T03:17:04.631Z,9.68
2023-05-08T03:19:35.980Z,10.32
2023-05-08T03:22:04.141Z,10.05
2023-05-08T03:24:33.620Z,10.63
2023-05-08T03:27:01.168Z,9.95
2023-05-08T03:29:29.105Z,9.57
2023-05-08T03:31:57.583Z,10.02
2023-05-08T03:34:25.213Z,10.02
2023-05-08T03:36:52.610Z,9.57
2023-05-08T03:39:19.681Z,9.00
2023-05-08T03:41:47.918Z,8.98
2023-05-08T03:44:15.121Z,8.75
2023-05-08T03:46:42.986Z,9.18
2023-05-08T03:49:11.721Z,9.25
2023-05-08T03:54:06.162Z,8.82
2023-05-08T03:56:34.393Z,8.68
2023-05-08T03:59:13.767Z,9.02
2023-05-08T04:01:50.046Z,8.65
2023-05-08T04:04:24.367Z,8.10
2023-05-08T04:07:13.844Z,8.48
2023-05-08T04:09:55.239Z,8.70
2023-05-08T04:12:50.618Z,7.85
2023-05-08T04:15:30.544Z,8.32
2023-05-08T04:18:08.208Z,8.85
2023-05-08T04:20:35.745Z,9.50
2023-05-08T04:23:03.798Z,9.02
2023-05-08T04:25:32.373Z,8.90
2023-05-08T04:27:59.687Z,8.48
2023-05-08T04:30:27.170Z,9.65
2023-05-08T04:32:55.795Z,8.85
2023-05-08T04:37:49.221Z,7.90
2023-05-08T04:40:15.882Z,7.68
2023-05-08T04:42:43.585Z,7.85
2023-05-08T04:45:10.898Z,8.03
2023-05-08T04:47:37.847Z,7.90
2023-05-08T04:50:05.023Z,8.13
2023-05-08T04:52:31.891Z,7.93
2023-05-08T04:54:59.531Z,7.80
2023-05-08T04:57:26.317Z,7.38
2023-05-08T04:59:53.087Z,7.47
2023-05-08T05:02:21.861Z,7.60
2023-05-08T05:04:49.106Z,7.38
2023-05-08T05:07:15.759Z,7.60
2023-05-08T05:09:44.138Z,7.50
2023-05-08T05:12:10.936Z,6.72
2023-05-08T05:14:37.629Z,7.30
2023-05-08T05:17:06.164Z,7.65
2023-05-08T05:21:59.976Z,7.22
2023-05-08T05:24:26.615Z,7.40
2023-05-08T05:26:53.249Z,8.45
2023-05-08T05:29:19.978Z,8.20
2023-05-08T05:31:46.690Z,8.65
2023-05-08T05:34:13.430Z,9.05
2023-05-08T05:36:40.228Z,9.30
2023-05-08T05:39:06.937Z,10.30
2023-05-08T05:41:34.267Z,10.25
2023-05-08T05:44:01.026Z,10.75
2023-05-08T05:46:32.426Z,10.57
2023-05-08T05:48:59.498Z,10.27
2023-05-08T05:51:27.627Z,12.40
2023-05-08T05:53:54.302Z,12.30
2023-05-08T05:56:23.186Z,13.43
2023-05-08T05:58:50.012Z,13.40
2023-05-08T06:01:17.025Z,14.05
2023-05-08T06:03:44.185Z,12.45
2023-05-08T06:06:11.304Z,14.95
2023-05-08T06:08:37.948Z,13.60
2023-05-08T06:11:04.770Z,13.93
2023-05-08T06:13:32.888Z,13.68
2023-05-08T06:15:59.820Z,15.18
2023-05-08T06:18:26.736Z,14.77
2023-05-08T06:20:57.872Z,15.68
2023-05-08T06:23:24.929Z,15.05
2023-05-08T06:25:51.775Z,16.17
2023-05-08T06:28:22.577Z,15.77
2023-05-08T06:30:49.423Z,17.40
2023-05-08T06:33:16.180Z,17.23
2023-05-08T06:35:47.214Z,17.35
2023-05-08T06:38:15.627Z,16.73
2023-05-08T06:40:44.052Z,17.17
2023-05-08T06:43:11.745Z,18.30
2023-05-08T06:45:40.271Z,19.70
2023-05-08T06:50:37.496Z,20.60
2023-05-08T06:53:04.271Z,22.65
2023-05-08T06:55:30.933Z,23.00
2023-05-08T06:57:57.720Z,23.25
2023-05-08T07:00:24.681Z,22.85
2023-05-08T07:02:52.223Z,24.00
2023-05-08T07:05:20.003Z,24.65
2023-05-08T07:07:46.998Z,26.58
2023-05-08T07:10:14.097Z,26.77
2023-05-08T07:12:41.337Z,27.67
2023-05-08T07:15:23.919Z,29.10
2023-05-08T07:17:54.091Z,27.83
2023-05-08T07:20:21.576Z,29.08
2023-05-08T07:22:49.707Z,29.33
2023-05-08T07:25:16.909Z,30.92
2023-05-08T07:27:43.743Z,30.48
2023-05-08T07:30:10.854Z,32.15
2023-05-08T07:32:39.206Z,32.55
2023-05-08T07:35:10.306Z,33.53
2023-05-08T07:37:37.806Z,34.47
2023-05-08T07:40:04.858Z,35.63
2023-05-08T07:42:31.565Z,36.55
2023-05-08T07:44:58.307Z,35.85
2023-05-08T07:47:25.195Z,36.40
2023-05-08T07:49:53.083Z,37.33
2023-05-08T07:52:19.999Z,39.60
2023-05-08T07:54:46.714Z,39.50
2023-05-08T07:57:13.391Z,39.90
2023-05-08T07:59:40.166Z,40.97
2023-05-08T08:02:07.535Z,42.67
2023-05-08T08:04:34.454Z,42.20
2023-05-08T08:07:04.125Z,43.25
2023-05-08T08:09:31.231Z,44.65
2023-05-08T08:11:58.243Z,44.40
2023-05-08T08:14:24.903Z,44.17
2023-05-08T08:16:51.613Z,45.50
2023-05-08T08:19:19.332Z,44.97
2023-05-08T08:21:46.353Z,46.50
2023-05-08T08:24:13.549Z,45.05
2023-05-08T08:26:40.352Z,45.60
2023-05-08T08:29:07.112Z,47.60
2023-05-08T08:31:34.040Z,47.20
2023-05-08T08:34:00.928Z,46.78
2023-05-08T08:36:28.135Z,48.17
2023-05-08T08:38:54.809Z,47.75
2023-05-08T08:41:22.194Z,48.70
2023-05-08T08:43:49.208Z,46.33
2023-05-08T08:46:20.129Z,46.55
2023-05-08T08:48:47.579Z,48.20
2023-05-08T08:51:41.852Z,45.97
2023-05-08T08:54:11.345Z,46.15
2023-05-08T08:56:40.766Z,47.58
2023-05-08T08:59:08.999Z,49.80
2023-05-08T09:01:38.786Z,52.47
2023-05-08T09:04:05.993Z,47.58
2023-05-08T09:06:37.174Z,48.92
2023-05-08T09:09:04.818Z,48.20
2023-05-08T09:11:31.587Z,47.67
2023-05-08T09:13:59.483Z,49.10
2023-05-08T09:16:28.565Z,48.42
2023-05-08T09:18:55.432Z,49.20
2023-05-08T09:21:23.316Z,51.05
2023-05-08T09:23:59.924Z,52.63
2023-05-08T09:26:44.528Z,49.53
2023-05-08T09:29:18.131Z,49.28
2023-05-08T09:31:47.085Z,51.13
2023-05-08T09:34:28.799Z,47.58
2023-05-08T09:36:56.687Z,47.83
2023-05-08T09:39:25.886Z,50.03
2023-05-08T09:42:03.716Z,48.25
2023-05-08T09:44:53.894Z,52.13
2023-05-08T09:47:23.018Z,48.47
2023-05-08T09:49:59.517Z,50.22
2023-05-08T09:52:30.071Z,49.60
2023-05-08T09:55:04.284Z,51.05
2023-05-08T09:57:32.986Z,53.58
2023-05-08T10:00:11.740Z,54.05
2023-05-08T10:02:55.328Z,55.03
2023-05-08T10:05:34.552Z,53.60
2023-05-08T10:08:22.070Z,56.42
2023-05-08T10:10:49.254Z,56.17
2023-05-08T10:13:16.029Z,60.50
2023-05-08T10:15:43.949Z,59.75
2023-05-08T10:18:12.280Z,58.60
2023-05-08T10:23:17.087Z,57.17
2023-05-08T10:25:46.629Z,59.40
2023-05-08T10:28:24.844Z,61.28
2023-05-08T10:30:54.402Z,62.80
2023-05-08T10:33:23.951Z,65.20
2023-05-08T10:35:50.889Z,62.90
2023-05-08T10:38:18.986Z,66.25
2023-05-08T10:40:46.220Z,67.30
2023-05-08T10:43:15.752Z,67.05
2023-05-08T10:45:43.283Z,74.05
2023-05-08T10:48:48.766Z,76.63
2023-05-08T10:51:23.749Z,76.57
2023-05-08T10:53:55.353Z,71.65
2023-05-08T10:56:28.965Z,67.55
2023-05-08T10:58:57.749Z,68.57
2023-05-08T11:01:28.226Z,68.72
2023-05-08T11:03:56.246Z,66.28
2023-05-08T11:06:49.394Z,71.15
2023-05-08T11:09:26.986Z,69.38
2023-05-08T11:12:08.547Z,69.77
2023-05-08T11:14:39.459Z,70.07
2023-05-08T11:17:06.903Z,67.88
2023-05-08T11:19:33.994Z,67.45
2023-05-08T11:22:13.606Z,70.35
2023-05-08T11:24:51.651Z,69.72
2023-05-08T11:27:18.924Z,68.03
2023-05-08T11:30:05.609Z,67.15
2023-05-08T11:33:03.589Z,68.40
2023-05-08T11:38:19.276Z,67.72
2023-05-08T11:41:19.610Z,68.25
2023-05-08T11:44:04.754Z,68.25
2023-05-08T11:46:40.370Z,67.60
2023-05-08T11:49:12.302Z,67.38
2023-05-08T11:51:44.817Z,68.40
2023-05-08T11:54:17.575Z,70.90
2023-05-08T11:56:47.834Z,69.72
2023-05-08T11:59:17.063Z,69.15
2023-05-08T12:01:48.543Z,64.13
2023-05-08T12:04:23.578Z,55.92
2023-05-08T12:06:56.715Z,56.63
2023-05-08T12:09:23.635Z,59.70
2023-05-08T12:11:57.906Z,60.42
2023-05-08T12:14:24.774Z,57.75
2023-05-08T12:16:51.688Z,58.40
2023-05-08T12:19:18.410Z,57.20
2023-05-08T12:21:49.468Z,58.67
2023-05-08T12:24:18.794Z,58.08
2023-05-08T12:26:47.014Z,56.00
2023-05-08T12:29:14.291Z,52.45
2023-05-08T12:31:41.941Z,52.78
2023-05-08T12:34:10.099Z,52.08
2023-05-08T12:36:48.928Z,54.33
2023-05-08T12:39:16.979Z,47.92
2023-05-08T12:41:50.947Z,50.50
2023-05-08T12:44:23.411Z,49.75
2023-05-08T12:46:51.709Z,51.65
2023-05-08T12:49:29.113Z,52.10
2023-05-08T12:52:06.930Z,52.78
2023-05-08T12:54:37.822Z,53.20
2023-05-08T12:57:10.221Z,48.78
2023-05-08T12:59:37.344Z,50.30
2023-05-08T13:02:04.630Z,49.10
2023-05-08T13:04:37.398Z,47.25
2023-05-08T13:07:04.693Z,48.50
2023-05-08T13:09:31.839Z,46.33
2023-05-08T13:11:59.564Z,46.65
2023-05-08T13:14:26.982Z,45.92
2023-05-08T13:16:54.216Z,43.50
2023-05-08T13:19:21.411Z,41.55
2023-05-08T13:21:49.464Z,38.50
2023-05-08T13:24:16.777Z,36.97
2023-05-08T13:26:44.030Z,34.15
2023-05-08T13:29:11.178Z,36.92
2023-05-08T13:31:38.364Z,38.72
2023-05-08T13:34:05.532Z,35.05
2023-05-08T13:36:32.719Z,38.80
2023-05-08T13:38:59.943Z,35.97
2023-05-08T13:41:27.018Z,32.15
2023-05-08T13:43:54.107Z,32.35
2023-05-08T13:46:21.331Z,31.65
2023-05-08T13:48:48.463Z,32.33
2023-05-08T13:51:15.748Z,30.80
2023-05-08T13:53:42.860Z,33.67
2023-05-08T13:56:09.968Z,33.42
2023-05-08T13:58:37.122Z,32.40
2023-05-08T14:01:17.589Z,33.05
2023-05-08T14:03:51.477Z,31.35
2023-05-08T14:06:18.771Z,30.10
2023-05-08T14:08:49.616Z,32.28
2023-05-08T14:11:18.120Z,30.67
2023-05-08T14:13:45.274Z,28.40
2023-05-08T14:16:14.349Z,28.83
2023-05-08T14:18:41.627Z,28.30
2023-05-08T14:21:08.771Z,28.55
2023-05-08T14:23:36.066Z,26.08
2023-05-08T14:26:03.284Z,27.75
2023-05-08T14:28:30.375Z,29.98
2023-05-08T14:30:57.523Z,27.02
2023-05-08T14:33:24.709Z,28.95
2023-05-08T14:35:51.812Z,31.27
2023-05-08T14:38:18.935Z,31.35
2023-05-08T14:40:46.010Z,30.92
2023-05-08T14:43:13.081Z,31.27
2023-05-08T14:45:40.263Z,32.10
2023-05-08T14:48:07.552Z,31.65
2023-05-08T14:50:34.760Z,31.38
2023-05-08T14:53:01.948Z,30.48
2023-05-08T14:55:29.337Z,32.05
2023-05-08T14:57:57.087Z,33.17
2023-05-08T15:00:24.222Z,30.92
2023-05-08T15:02:51.509Z,33.05
2023-05-08T15:05:20.174Z,29.65
2023-05-08T15:07:49.949Z,28.38
2023-05-08T15:10:17.103Z,30.38
2023-05-08T15:12:44.211Z,30.10
2023-05-08T15:15:11.824Z,29.70
2023-05-08T15:17:41.417Z,30.83
2023-05-08T15:20:11.820Z,31.10
2023-05-08T15:22:39.113Z,33.05
2023-05-08T15:25:06.557Z,29.92
2023-05-08T15:27:33.719Z,30.60
2023-05-08T15:30:00.910Z,26.63
2023-05-08T15:32:28.055Z,28.77
2023-05-08T15:34:56.044Z,30.70
2023-05-08T15:37:23.128Z,27.73
2023-05-08T15:39:50.276Z,30.90
2023-05-08T15:42:17.356Z,31.40
2023-05-08T15:47:14.698Z,31.98
2023-05-08T15:49:41.885Z,30.80
2023-05-08T15:52:08.549Z,31.38
2023-05-08T15:54:35.301Z,29.95
2023-05-08T15:57:02.059Z,30.85
2023-05-08T15:59:29.279Z,31.15
2023-05-08T16:01:56.365Z,30.90
2023-05-08T16:04:23.522Z,32.25
2023-05-08T16:06:50.658Z,32.75
2023-05-08T16:09:17.762Z,33.17
2023-05-08T16:11:44.867Z,33.50
2023-05-08T16:14:12.240Z,32.40
2023-05-08T16:16:39.718Z,33.67
2023-05-08T16:19:06.890Z,37.92
2023-05-08T16:21:33.981Z,38.45
2023-05-08T16:24:01.203Z,37.90
2023-05-08T16:26:28.484Z,43.42
2023-05-08T16:28:55.654Z,44.72
2023-05-08T16:31:22.787Z,45.53
2023-05-08T16:33:49.863Z,56.97
2023-05-08T16:36:17.031Z,57.60
2023-05-08T16:38:44.141Z,58.55
2023-05-08T16:41:12.731Z,61.97
2023-05-08T16:43:39.894Z,64.65
2023-05-08T16:46:07.511Z,61.10
2023-05-08T16:48:34.831Z,64.20
2023-05-08T16:51:02.052Z,66.85
2023-05-08T16:53:29.186Z,66.03
2023-05-08T16:55:56.479Z,67.90
2023-05-08T16:58:23.611Z,67.78
2023-05-08T17:00:50.846Z,67.05
2023-05-08T17:03:18.075Z,70.15
2023-05-08T17:05:45.239Z,70.00
2023-05-08T17:08:12.568Z,68.07
2023-05-08T17:10:39.754Z,69.80
2023-05-08T17:13:06.866Z,71.25
2023-05-08T17:15:34.307Z,68.43
2023-05-08T17:18:01.538Z,69.63
2023-05-08T17:20:28.726Z,69.65
2023-05-08T17:22:55.920Z,68.85
2023-05-08T17:25:23.102Z,68.97
2023-05-08T17:27:51.253Z,72.07
2023-05-08T17:30:18.388Z,70.40
2023-05-08T17:32:46.306Z,70.25
2023-05-08T17:35:13.473Z,69.50
2023-05-08T17:37:40.598Z,67.82
2023-05-08T17:40:10.002Z,68.32
2023-05-08T17:45:04.963Z,67.03
2023-05-08T17:47:32.324Z,66.72
2023-05-08T17:49:59.575Z,65.53
2023-05-08T17:52:26.650Z,64.22
2023-05-08T17:54:53.844Z,63.88
2023-05-08T17:57:21.033Z,61.45
2023-05-08T17:59:48.222Z,61.10
2023-05-08T18:02:15.478Z,63.42
2023-05-08T18:04:42.672Z,60.00
2023-05-08T18:07:09.772Z,59.25
2023-05-08T18:09:36.922Z,56.58
2023-05-08T18:12:04.238Z,57.05
2023-05-08T18:14:34.848Z,57.97
2023-05-08T18:17:02.082Z,56.40
2023-05-08T18:19:29.213Z,56.90
2023-05-08T18:21:56.388Z,56.25
2023-05-08T18:24:23.536Z,55.08
2023-05-08T18:26:52.331Z,56.95
2023-05-08T18:29:20.702Z,56.58
2023-05-08T18:31:47.898Z,55.42
2023-05-08T18:34:16.152Z,54.78
2023-05-08T18:36:43.276Z,55.42
2023-05-08T18:39:10.509Z,54.63
2023-05-08T18:41:37.765Z,57.45
2023-05-08T18:44:05.858Z,55.92
2023-05-08T18:46:33.053Z,55.22
2023-05-08T18:49:00.534Z,55.95
2023-05-08T18:51:27.776Z,55.97
2023-05-08T18:53:57.131Z,53.85
2023-05-08T18:56:24.363Z,54.92
2023-05-08T18:58:51.483Z,54.30
2023-05-08T19:01:20.144Z,55.33
2023-05-08T19:03:48.463Z,57.58
2023-05-08T19:06:15.724Z,54.17
2023-05-08T19:08:43.739Z,54.83
2023-05-08T19:11:10.909Z,55.78
2023-05-08T19:13:38.488Z,56.45
2023-05-08T19:16:05.798Z,54.90
2023-05-08T19:18:32.991Z,53.92
2023-05-08T19:21:01.528Z,53.78
2023-05-08T19:23:28.682Z,54.38
2023-05-08T19:25:56.833Z,57.03
2023-05-08T19:28:23.957Z,55.72
2023-05-08T19:30:51.073Z,55.63
2023-05-08T19:33:20.701Z,54.47
2023-05-08T19:35:48.159Z,53.75
2023-05-08T19:38:15.420Z,54.58
2023-05-08T19:40:55.757Z,55.15
2023-05-08T19:43:24.973Z,51.13
2023-05-08T19:45:52.374Z,53.67
2023-05-08T19:48:20.084Z,54.88
2023-05-08T19:50:47.452Z,52.45
2023-05-08T19:53:14.743Z,52.95
2023-05-08T19:55:42.082Z,52.15
2023-05-08T19:58:09.314Z,52.90
2023-05-08T20:00:37.432Z,53.72
2023-05-08T20:03:04.617Z,56.90
2023-05-08T20:05:31.910Z,57.08
2023-05-08T20:07:59.206Z,55.33
2023-05-08T20:10:26.393Z,58.58
2023-05-08T20:12:53.529Z,53.08
2023-05-08T20:15:20.684Z,54.92
2023-05-08T20:17:47.890Z,53.05
2023-05-08T20:20:15.457Z,52.35
2023-05-08T20:22:42.743Z,49.95
2023-05-08T20:25:09.858Z,50.40
2023-05-08T20:27:37.068Z,48.67
2023-05-08T20:30:04.536Z,42.92
2023-05-08T20:32:31.741Z,44.00
2023-05-08T20:34:58.931Z,42.20
2023-05-08T20:37:26.135Z,41.65
2023-05-08T20:39:53.248Z,41.63
2023-05-08T20:42:20.425Z,39.15
2023-05-08T20:44:47.529Z,40.22
2023-05-08T20:47:14.712Z,39.13
2023-05-08T20:49:41.855Z,40.53
2023-05-08T20:52:08.939Z,41.60
2023-05-08T20:54:36.100Z,41.53
2023-05-08T20:57:03.193Z,42.45
2023-05-08T20:59:30.305Z,43.17
2023-05-08T21:01:57.386Z,42.00
2023-05-08T21:04:24.511Z,43.28
2023-05-08T21:06:52.329Z,41.67
2023-05-08T21:09:19.659Z,42.75
2023-05-08T21:11:46.782Z,40.75
2023-05-08T21:14:13.988Z,44.28
2023-05-08T21:16:41.232Z,42.17
2023-05-08T21:19:09.891Z,41.40
2023-05-08T21:21:37.125Z,41.70
2023-05-08T21:24:04.878Z,41.50
2023-05-08T21:26:31.985Z,44.00
2023-05-08T21:29:00.487Z,42.03
2023-05-08T21:36:23.146Z,39.90
2023-05-08T21:38:50.434Z,39.22
2023-05-08T21:41:17.569Z,39.53
2023-05-08T21:43:44.673Z,39.22
2023-05-08T21:46:11.864Z,42.63
2023-05-08T21:48:38.963Z,36.63
2023-05-08T21:51:06.642Z,38.15
2023-05-08T21:53:33.872Z,37.97
2023-05-08T21:56:00.961Z,38.08
2023-05-08T21:58:30.914Z,37.22
2023-05-08T22:00:58.786Z,35.92
2023-05-08T22:03:26.217Z,38.28
2023-05-08T22:05:55.315Z,37.80
2023-05-08T22:08:21.964Z,35.92
2023-05-08T22:10:48.701Z,35.13
2023-05-08T22:13:15.478Z,34.50
2023-05-08T22:15:42.821Z,34.83
2023-05-08T22:18:09.554Z,34.88
2023-05-08T22:20:36.279Z,34.90
2023-05-08T22:23:03.086Z,35.63
2023-05-08T22:25:29.897Z,34.13
2023-05-08T22:27:56.591Z,33.83
2023-05-08T22:30:23.305Z,34.30
2023-05-08T22:32:57.647Z,32.95
2023-05-08T22:35:27.613Z,33.78
2023-05-08T22:37:54.918Z,34.78
2023-05-08T22:40:22.244Z,33.42
2023-05-08T22:42:51.870Z,35.55
2023-05-08T22:45:19.325Z,34.72
2023-05-08T22:47:46.283Z,33.30
2023-05-08T22:50:13.186Z,32.45
2023-05-08T22:52:40.291Z,32.17
2023-05-08T22:55:07.830Z,32.83
2023-05-08T22:57:34.673Z,33.22
2023-05-08T23:00:01.393Z,35.45
2023-05-08T23:02:33.059Z,33.72
2023-05-08T23:05:00.350Z,32.95
2023-05-08T23:07:27.274Z,32.22
2023-05-08T23:09:54.009Z,35.63
2023-05-08T23:12:20.672Z,33.75
2023-05-08T23:14:47.390Z,34.60
2023-05-08T23:17:14.346Z,34.38
2023-05-08T23:19:42.511Z,36.10
2023-05-08T23:22:09.862Z,35.63
2023-05-08T23:24:36.997Z,35.78
2023-05-08T23:27:03.773Z,34.22
2023-05-08T23:29:30.712Z,33.75
2023-05-08T23:31:57.381Z,36.00
2023-05-08T23:34:24.106Z,34.88
2023-05-08T23:36:50.773Z,35.25
2023-05-08T23:39:17.476Z,34.85
2023-05-08T23:41:44.205Z,36.72
2023-05-08T23:44:11.091Z,38.25
2023-05-08T23:46:37.951Z,40.03
2023-05-08T23:49:06.675Z,38.53
2023-05-08T23:51:33.576Z,38.08
2023-05-08T23:54:00.337Z,38.38
2023-05-08T23:56:27.127Z,39.33
2023-05-08T23:58:53.859Z,37.00
